VHHH

Chek Lap Kok International Airport

Hong Kong, Hong Kong
TAF VHHH 210500Z 2106/2212 27010KT 9999 FEW020 TX34/2106Z TX34/2206Z TN28/2122Z BECMG 2109/2111 VRB05KT TEMPO 2109/2115 16010KT 4000 SHRA BECMG 2201/2203 27010KT BECMG 2209/2211 VRB05KT TEMPO 2209/2212 16101KT
Issued Valid From Valid To
Jul-21 @ 05:00 UTC
(5 hours ago)
Jul-21 @ 06:00 UTC
(4 hours ago)
Jul-22 @ 12:00 UTC
(-1 days ago)
Expired Click to View Jul-21 @ 06:00 to Jul-21 @ 09:00
TAF VHHH 210500Z 2106/2212 27010KT 9999 FEW020 TX34/2106Z TX34/2206Z TN28/2122Z
Wind Visibility Clouds
270° at 10 knots 10,000+ meters
  • Few at 2,000' AGL
Temporary Jul-21 @ 09:00 to Jul-21 @ 15:00
TEMPO 2109/2115 16010KT 4000 SHRA
Wind Visibility Conditions
160° at 10 knots 4,007 meters
  • Rain
Becoming Jul-21 @ 09:00 to Jul-22 @ 01:00
BECMG 2109/2111 VRB05KT
Wind Visibility Clouds
Variable at 5 knots 10,000+ meters
  • Few at 2,000' AGL
Becoming Jul-22 @ 01:00 to Jul-22 @ 09:00
BECMG 2201/2203 27010KT
Wind Visibility Clouds
270° at 10 knots 10,000+ meters
  • Few at 2,000' AGL
Becoming Jul-22 @ 09:00 to Jul-22 @ 12:00
BECMG 2209/2211 VRB05KT
Wind Visibility Clouds
Variable at 5 knots 10,000+ meters
  • Few at 2,000' AGL
Temporary Jul-22 @ 09:00 to Jul-22 @ 12:00
TEMPO 2209/2212 16101KT
Wind
161° at 1 knots
TAF VHHH 210500Z 2106/2212 27010KT 9999 FEW020 TX34/2106Z TX34/2206Z TN28/2122Z BECMG 2109/2111 VRB05KT TEMPO 2109/2115 16010KT 4000 SHRA BECMG 2201/2203 27010KT BECMG 2209/2211 VRB05KT TEMPO 2209/2212 16101KT
Issued Jul-21 @ 05:00 UTC
(5 hours ago)
Valid From Jul-21 @ 06:00 UTC
(4 hours ago)
Valid To Jul-22 @ 12:00 UTC
(-1 days ago)
Jul-21 @ 06:00 - Jul-21 @ 09:00
Wind Visibility
270° at 10 knots 10,000+ meters
Clouds
  • Few at 2,000' AGL
Temporary Jul-21 @ 09:00 - Jul-21 @ 15:00
Wind Visibility
160° at 10 knots 4,007 meters
Conditions
  • Rain
Becoming Jul-21 @ 09:00 - Jul-22 @ 01:00
Wind Visibility
Variable at 5 knots 10,000+ meters
Clouds
  • Few at 2,000' AGL
Becoming Jul-22 @ 01:00 - Jul-22 @ 09:00
Wind Visibility
270° at 10 knots 10,000+ meters
Clouds
  • Few at 2,000' AGL
Becoming Jul-22 @ 09:00 - Jul-22 @ 12:00
Wind Visibility
Variable at 5 knots 10,000+ meters
Clouds
  • Few at 2,000' AGL
Temporary Jul-22 @ 09:00 - Jul-22 @ 12:00
Wind
161° at 1 knots